sensor_id;sensor_type;location;lat;lon;timestamp;temperature;humidity
67529;DHT22;54366;51.980;5.856;2022-07-23T00:00:05;18.30;70.00
67529;DHT22;54366;51.980;5.856;2022-07-23T00:02:32;18.20;70.40
67529;DHT22;54366;51.980;5.856;2022-07-23T00:04:58;18.20;70.60
67529;DHT22;54366;51.980;5.856;2022-07-23T00:07:24;18.20;70.40
67529;DHT22;54366;51.980;5.856;2022-07-23T00:09:50;18.10;70.20
67529;DHT22;54366;51.980;5.856;2022-07-23T00:12:17;18.10;70.20
67529;DHT22;54366;51.980;5.856;2022-07-23T00:14:43;18.00;70.30
67529;DHT22;54366;51.980;5.856;2022-07-23T00:17:09;18.00;70.70
67529;DHT22;54366;51.980;5.856;2022-07-23T00:19:35;18.00;70.30
67529;DHT22;54366;51.980;5.856;2022-07-23T00:22:01;17.90;70.50
67529;DHT22;54366;51.980;5.856;2022-07-23T00:24:28;17.90;70.80
67529;DHT22;54366;51.980;5.856;2022-07-23T00:26:54;17.90;70.60
67529;DHT22;54366;51.980;5.856;2022-07-23T00:29:21;17.90;70.80
67529;DHT22;54366;51.980;5.856;2022-07-23T00:31:47;17.90;70.90
67529;DHT22;54366;51.980;5.856;2022-07-23T00:34:13;17.90;70.50
67529;DHT22;54366;51.980;5.856;2022-07-23T00:36:39;17.90;70.10
67529;DHT22;54366;51.980;5.856;2022-07-23T00:39:05;17.80;69.70
67529;DHT22;54366;51.980;5.856;2022-07-23T00:41:31;17.80;69.70
67529;DHT22;54366;51.980;5.856;2022-07-23T00:44:17;17.80;69.70
67529;DHT22;54366;51.980;5.856;2022-07-23T00:46:52;17.70;69.60
67529;DHT22;54366;51.980;5.856;2022-07-23T00:49:21;17.60;69.90
67529;DHT22;54366;51.980;5.856;2022-07-23T00:51:48;17.60;70.10
67529;DHT22;54366;51.980;5.856;2022-07-23T00:54:16;17.60;70.60
67529;DHT22;54366;51.980;5.856;2022-07-23T00:56:44;17.60;70.60
67529;DHT22;54366;51.980;5.856;2022-07-23T00:59:11;17.60;70.20
67529;DHT22;54366;51.980;5.856;2022-07-23T01:01:37;17.60;70.20
67529;DHT22;54366;51.980;5.856;2022-07-23T01:04:04;17.60;70.40
67529;DHT22;54366;51.980;5.856;2022-07-23T01:06:35;17.50;70.40
67529;DHT22;54366;51.980;5.856;2022-07-23T01:09:05;17.50;70.50
67529;DHT22;54366;51.980;5.856;2022-07-23T01:11:34;17.50;70.30
67529;DHT22;54366;51.980;5.856;2022-07-23T01:14:15;17.50;70.50
67529;DHT22;54366;51.980;5.856;2022-07-23T01:16:43;17.50;71.20
67529;DHT22;54366;51.980;5.856;2022-07-23T01:19:10;17.40;71.90
67529;DHT22;54366;51.980;5.856;2022-07-23T01:21:42;17.40;71.90
67529;DHT22;54366;51.980;5.856;2022-07-23T01:24:10;17.40;71.90
67529;DHT22;54366;51.980;5.856;2022-07-23T01:26:45;17.40;72.30
67529;DHT22;54366;51.980;5.856;2022-07-23T01:29:13;17.40;73.00
67529;DHT22;54366;51.980;5.856;2022-07-23T01:31:41;17.30;72.30
67529;DHT22;54366;51.980;5.856;2022-07-23T01:34:07;17.30;72.20
67529;DHT22;54366;51.980;5.856;2022-07-23T01:36:34;17.30;72.20
67529;DHT22;54366;51.980;5.856;2022-07-23T01:39:03;17.30;72.40
67529;DHT22;54366;51.980;5.856;2022-07-23T01:41:29;17.30;72.50
67529;DHT22;54366;51.980;5.856;2022-07-23T01:43:56;17.20;72.80
67529;DHT22;54366;51.980;5.856;2022-07-23T01:46:23;17.30;72.80
67529;DHT22;54366;51.980;5.856;2022-07-23T01:48:50;17.20;72.50
67529;DHT22;54366;51.980;5.856;2022-07-23T01:51:36;17.20;72.50
67529;DHT22;54366;51.980;5.856;2022-07-23T01:54:07;17.20;72.40
67529;DHT22;54366;51.980;5.856;2022-07-23T01:56:34;17.10;72.50
67529;DHT22;54366;51.980;5.856;2022-07-23T01:59:00;17.10;72.50
67529;DHT22;54366;51.980;5.856;2022-07-23T02:01:27;17.10;72.50
67529;DHT22;54366;51.980;5.856;2022-07-23T02:03:53;17.00;72.70
67529;DHT22;54366;51.980;5.856;2022-07-23T02:06:19;17.00;72.90
67529;DHT22;54366;51.980;5.856;2022-07-23T02:08:45;17.00;72.80
67529;DHT22;54366;51.980;5.856;2022-07-23T02:11:12;17.00;73.00
67529;DHT22;54366;51.980;5.856;2022-07-23T02:13:38;16.90;72.90
67529;DHT22;54366;51.980;5.856;2022-07-23T02:16:04;16.90;73.00
67529;DHT22;54366;51.980;5.856;2022-07-23T02:18:30;16.90;72.80
67529;DHT22;54366;51.980;5.856;2022-07-23T02:20:57;17.00;73.00
67529;DHT22;54366;51.980;5.856;2022-07-23T02:23:23;16.90;72.90
67529;DHT22;54366;51.980;5.856;2022-07-23T02:25:50;16.90;72.90
67529;DHT22;54366;51.980;5.856;2022-07-23T02:28:16;16.90;72.80
67529;DHT22;54366;51.980;5.856;2022-07-23T02:30:42;16.80;73.00
67529;DHT22;54366;51.980;5.856;2022-07-23T02:33:10;16.80;72.90
67529;DHT22;54366;51.980;5.856;2022-07-23T02:35:36;16.80;72.90
67529;DHT22;54366;51.980;5.856;2022-07-23T02:38:03;16.80;72.80
67529;DHT22;54366;51.980;5.856;2022-07-23T02:40:31;16.80;73.00
67529;DHT22;54366;51.980;5.856;2022-07-23T02:42:57;16.70;73.10
67529;DHT22;54366;51.980;5.856;2022-07-23T02:45:24;16.70;73.10
67529;DHT22;54366;51.980;5.856;2022-07-23T02:47:51;16.70;73.20
67529;DHT22;54366;51.980;5.856;2022-07-23T02:50:17;16.70;73.20
67529;DHT22;54366;51.980;5.856;2022-07-23T02:52:44;16.70;73.40
67529;DHT22;54366;51.980;5.856;2022-07-23T02:55:10;16.70;73.20
67529;DHT22;54366;51.980;5.856;2022-07-23T02:57:37;16.70;73.20
67529;DHT22;54366;51.980;5.856;2022-07-23T03:00:04;16.70;73.90
67529;DHT22;54366;51.980;5.856;2022-07-23T03:02:32;16.70;73.30
67529;DHT22;54366;51.980;5.856;2022-07-23T03:04:58;16.60;73.40
67529;DHT22;54366;51.980;5.856;2022-07-23T03:07:24;16.60;73.60
67529;DHT22;54366;51.980;5.856;2022-07-23T03:09:53;16.60;73.60
67529;DHT22;54366;51.980;5.856;2022-07-23T03:12:19;16.60;73.40
67529;DHT22;54366;51.980;5.856;2022-07-23T03:14:45;16.60;73.40
67529;DHT22;54366;51.980;5.856;2022-07-23T03:17:11;16.60;73.40
67529;DHT22;54366;51.980;5.856;2022-07-23T03:19:37;16.50;73.50
67529;DHT22;54366;51.980;5.856;2022-07-23T03:22:04;16.50;73.50
67529;DHT22;54366;51.980;5.856;2022-07-23T03:24:31;16.50;73.70
67529;DHT22;54366;51.980;5.856;2022-07-23T03:27:16;16.50;73.70
67529;DHT22;54366;51.980;5.856;2022-07-23T03:29:42;16.50;73.70
67529;DHT22;54366;51.980;5.856;2022-07-23T03:32:09;16.40;73.70
67529;DHT22;54366;51.980;5.856;2022-07-23T03:34:36;16.40;73.70
67529;DHT22;54366;51.980;5.856;2022-07-23T03:37:04;16.30;74.00
67529;DHT22;54366;51.980;5.856;2022-07-23T03:39:30;16.30;74.10
67529;DHT22;54366;51.980;5.856;2022-07-23T03:41:56;16.30;74.30
67529;DHT22;54366;51.980;5.856;2022-07-23T03:44:23;16.30;74.40
67529;DHT22;54366;51.980;5.856;2022-07-23T03:46:49;16.20;74.30
67529;DHT22;54366;51.980;5.856;2022-07-23T03:49:15;16.20;74.40
67529;DHT22;54366;51.980;5.856;2022-07-23T03:51:42;16.20;74.60
67529;DHT22;54366;51.980;5.856;2022-07-23T03:54:08;16.20;74.60
67529;DHT22;54366;51.980;5.856;2022-07-23T03:56:35;16.20;74.50
67529;DHT22;54366;51.980;5.856;2022-07-23T03:59:01;16.20;74.60
67529;DHT22;54366;51.980;5.856;2022-07-23T04:01:27;16.20;74.70
67529;DHT22;54366;51.980;5.856;2022-07-23T04:03:54;16.20;74.80
67529;DHT22;54366;51.980;5.856;2022-07-23T04:06:20;16.20;74.80
67529;DHT22;54366;51.980;5.856;2022-07-23T04:08:47;16.20;74.50
67529;DHT22;54366;51.980;5.856;2022-07-23T04:11:14;16.20;74.80
67529;DHT22;54366;51.980;5.856;2022-07-23T04:13:40;16.10;74.80
67529;DHT22;54366;51.980;5.856;2022-07-23T04:16:06;16.10;75.00
67529;DHT22;54366;51.980;5.856;2022-07-23T04:18:33;16.10;74.80
67529;DHT22;54366;51.980;5.856;2022-07-23T04:21:09;16.10;74.90
67529;DHT22;54366;51.980;5.856;2022-07-23T04:23:36;16.10;75.60
67529;DHT22;54366;51.980;5.856;2022-07-23T04:26:03;16.10;75.10
67529;DHT22;54366;51.980;5.856;2022-07-23T04:28:30;16.10;75.20
67529;DHT22;54366;51.980;5.856;2022-07-23T04:30:57;16.10;75.30
67529;DHT22;54366;51.980;5.856;2022-07-23T04:33:23;16.10;75.40
67529;DHT22;54366;51.980;5.856;2022-07-23T04:35:53;16.10;75.40
67529;DHT22;54366;51.980;5.856;2022-07-23T04:38:20;16.10;75.40
67529;DHT22;54366;51.980;5.856;2022-07-23T04:40:49;16.10;75.70
67529;DHT22;54366;51.980;5.856;2022-07-23T04:43:15;16.10;75.80
67529;DHT22;54366;51.980;5.856;2022-07-23T04:45:46;16.10;75.80
67529;DHT22;54366;51.980;5.856;2022-07-23T04:48:13;16.10;75.90
67529;DHT22;54366;51.980;5.856;2022-07-23T04:50:39;16.10;75.80
67529;DHT22;54366;51.980;5.856;2022-07-23T04:53:14;16.10;75.80
67529;DHT22;54366;51.980;5.856;2022-07-23T04:55:41;16.10;75.80
67529;DHT22;54366;51.980;5.856;2022-07-23T04:58:08;16.20;76.00
67529;DHT22;54366;51.980;5.856;2022-07-23T05:00:34;16.20;76.00
67529;DHT22;54366;51.980;5.856;2022-07-23T05:03:00;16.20;76.00
67529;DHT22;54366;51.980;5.856;2022-07-23T05:05:27;16.20;76.10
67529;DHT22;54366;51.980;5.856;2022-07-23T05:07:57;16.20;76.00
67529;DHT22;54366;51.980;5.856;2022-07-23T05:10:24;16.20;76.20
67529;DHT22;54366;51.980;5.856;2022-07-23T05:12:50;16.30;76.50
67529;DHT22;54366;51.980;5.856;2022-07-23T05:15:16;16.40;76.20
67529;DHT22;54366;51.980;5.856;2022-07-23T05:17:43;16.40;75.90
67529;DHT22;54366;51.980;5.856;2022-07-23T05:20:13;16.40;76.00
67529;DHT22;54366;51.980;5.856;2022-07-23T05:22:41;16.50;76.10
67529;DHT22;54366;51.980;5.856;2022-07-23T05:25:07;16.50;75.90
67529;DHT22;54366;51.980;5.856;2022-07-23T05:27:33;16.60;75.70
67529;DHT22;54366;51.980;5.856;2022-07-23T05:30:00;16.60;75.60
67529;DHT22;54366;51.980;5.856;2022-07-23T05:32:26;16.70;75.40
67529;DHT22;54366;51.980;5.856;2022-07-23T05:35:05;16.70;75.10
67529;DHT22;54366;51.980;5.856;2022-07-23T05:37:31;16.80;75.40
67529;DHT22;54366;51.980;5.856;2022-07-23T05:40:03;16.80;75.40
67529;DHT22;54366;51.980;5.856;2022-07-23T05:42:29;16.90;75.30
67529;DHT22;54366;51.980;5.856;2022-07-23T05:44:56;16.90;75.20
67529;DHT22;54366;51.980;5.856;2022-07-23T05:47:22;17.00;75.10
67529;DHT22;54366;51.980;5.856;2022-07-23T05:49:48;17.00;74.90
67529;DHT22;54366;51.980;5.856;2022-07-23T05:52:27;17.10;74.50
67529;DHT22;54366;51.980;5.856;2022-07-23T05:55:28;17.20;74.10
67529;DHT22;54366;51.980;5.856;2022-07-23T05:57:59;17.20;73.40
67529;DHT22;54366;51.980;5.856;2022-07-23T06:00:27;17.30;73.20
67529;DHT22;54366;51.980;5.856;2022-07-23T06:02:53;17.40;72.90
67529;DHT22;54366;51.980;5.856;2022-07-23T06:05:20;17.40;72.60
67529;DHT22;54366;51.980;5.856;2022-07-23T06:07:47;17.50;72.40
67529;DHT22;54366;51.980;5.856;2022-07-23T06:10:15;17.50;72.70
67529;DHT22;54366;51.980;5.856;2022-07-23T06:12:41;17.60;72.20
67529;DHT22;54366;51.980;5.856;2022-07-23T06:15:08;17.70;71.70
67529;DHT22;54366;51.980;5.856;2022-07-23T06:17:34;17.80;71.30
67529;DHT22;54366;51.980;5.856;2022-07-23T06:20:02;17.90;71.20
67529;DHT22;54366;51.980;5.856;2022-07-23T06:22:29;17.90;71.00
67529;DHT22;54366;51.980;5.856;2022-07-23T06:24:56;18.00;70.90
67529;DHT22;54366;51.980;5.856;2022-07-23T06:27:22;18.00;70.70
67529;DHT22;54366;51.980;5.856;2022-07-23T06:29:49;18.10;70.90
67529;DHT22;54366;51.980;5.856;2022-07-23T06:32:16;18.20;70.40
67529;DHT22;54366;51.980;5.856;2022-07-23T06:34:43;18.30;69.90
67529;DHT22;54366;51.980;5.856;2022-07-23T06:37:09;18.40;69.40
67529;DHT22;54366;51.980;5.856;2022-07-23T06:39:35;18.50;69.20
67529;DHT22;54366;51.980;5.856;2022-07-23T06:42:01;18.60;69.20
67529;DHT22;54366;51.980;5.856;2022-07-23T06:44:44;18.70;69.30
67529;DHT22;54366;51.980;5.856;2022-07-23T06:47:10;18.80;69.20
67529;DHT22;54366;51.980;5.856;2022-07-23T06:49:36;18.90;68.80
67529;DHT22;54366;51.980;5.856;2022-07-23T06:52:03;19.00;68.20
67529;DHT22;54366;51.980;5.856;2022-07-23T06:54:29;19.10;67.80
67529;DHT22;54366;51.980;5.856;2022-07-23T06:56:55;19.20;67.40
67529;DHT22;54366;51.980;5.856;2022-07-23T06:59:22;19.30;67.30
67529;DHT22;54366;51.980;5.856;2022-07-23T07:01:48;19.40;67.20
67529;DHT22;54366;51.980;5.856;2022-07-23T07:04:14;19.50;66.00
67529;DHT22;54366;51.980;5.856;2022-07-23T07:06:40;19.60;65.50
67529;DHT22;54366;51.980;5.856;2022-07-23T07:09:07;19.70;65.40
67529;DHT22;54366;51.980;5.856;2022-07-23T07:11:33;19.80;65.10
67529;DHT22;54366;51.980;5.856;2022-07-23T07:13:59;19.90;64.70
67529;DHT22;54366;51.980;5.856;2022-07-23T07:16:25;19.90;64.30
67529;DHT22;54366;51.980;5.856;2022-07-23T07:18:51;20.00;64.50
67529;DHT22;54366;51.980;5.856;2022-07-23T07:21:18;20.20;63.80
67529;DHT22;54366;51.980;5.856;2022-07-23T07:23:44;20.20;62.50
67529;DHT22;54366;51.980;5.856;2022-07-23T07:26:10;20.30;61.60
67529;DHT22;54366;51.980;5.856;2022-07-23T07:28:36;20.30;62.80
67529;DHT22;54366;51.980;5.856;2022-07-23T07:31:02;20.40;62.50
67529;DHT22;54366;51.980;5.856;2022-07-23T07:33:29;20.50;61.60
67529;DHT22;54366;51.980;5.856;2022-07-23T07:35:55;20.50;60.20
67529;DHT22;54366;51.980;5.856;2022-07-23T07:38:21;20.50;61.10
67529;DHT22;54366;51.980;5.856;2022-07-23T07:40:48;20.70;61.80
67529;DHT22;54366;51.980;5.856;2022-07-23T07:43:14;20.70;60.40
67529;DHT22;54366;51.980;5.856;2022-07-23T07:45:40;20.80;60.60
67529;DHT22;54366;51.980;5.856;2022-07-23T07:48:06;20.90;60.30
67529;DHT22;54366;51.980;5.856;2022-07-23T07:50:33;21.00;59.20
67529;DHT22;54366;51.980;5.856;2022-07-23T07:52:59;21.10;58.90
67529;DHT22;54366;51.980;5.856;2022-07-23T07:55:25;21.20;59.00
67529;DHT22;54366;51.980;5.856;2022-07-23T07:57:52;21.30;59.20
67529;DHT22;54366;51.980;5.856;2022-07-23T08:00:19;21.40;59.70
67529;DHT22;54366;51.980;5.856;2022-07-23T08:05:14;21.70;58.30
67529;DHT22;54366;51.980;5.856;2022-07-23T08:07:40;21.70;57.50
67529;DHT22;54366;51.980;5.856;2022-07-23T08:10:08;21.80;57.60
67529;DHT22;54366;51.980;5.856;2022-07-23T08:12:46;21.80;57.50
67529;DHT22;54366;51.980;5.856;2022-07-23T08:15:15;22.00;57.70
67529;DHT22;54366;51.980;5.856;2022-07-23T08:17:42;22.00;57.70
67529;DHT22;54366;51.980;5.856;2022-07-23T08:20:11;22.20;56.90
67529;DHT22;54366;51.980;5.856;2022-07-23T08:22:48;22.30;57.00
67529;DHT22;54366;51.980;5.856;2022-07-23T08:25:19;22.40;56.10
67529;DHT22;54366;51.980;5.856;2022-07-23T08:27:46;22.40;54.90
67529;DHT22;54366;51.980;5.856;2022-07-23T08:30:13;22.40;55.60
67529;DHT22;54366;51.980;5.856;2022-07-23T08:32:57;22.30;55.50
67529;DHT22;54366;51.980;5.856;2022-07-23T08:35:25;22.20;56.40
67529;DHT22;54366;51.980;5.856;2022-07-23T08:37:52;22.30;56.60
67529;DHT22;54366;51.980;5.856;2022-07-23T08:40:19;22.30;56.00
67529;DHT22;54366;51.980;5.856;2022-07-23T08:42:50;22.50;55.20
67529;DHT22;54366;51.980;5.856;2022-07-23T08:45:21;22.60;55.00
67529;DHT22;54366;51.980;5.856;2022-07-23T08:47:53;22.70;54.40
67529;DHT22;54366;51.980;5.856;2022-07-23T08:50:20;22.70;54.40
67529;DHT22;54366;51.980;5.856;2022-07-23T08:52:48;22.90;54.80
67529;DHT22;54366;51.980;5.856;2022-07-23T08:55:17;23.00;55.40
67529;DHT22;54366;51.980;5.856;2022-07-23T08:57:44;23.20;53.40
67529;DHT22;54366;51.980;5.856;2022-07-23T09:00:10;23.40;53.80
67529;DHT22;54366;51.980;5.856;2022-07-23T09:02:42;23.50;53.50
67529;DHT22;54366;51.980;5.856;2022-07-23T09:05:10;23.60;51.90
67529;DHT22;54366;51.980;5.856;2022-07-23T09:15:51;24.20;50.60
67529;DHT22;54366;51.980;5.856;2022-07-23T09:18:17;24.30;50.70
67529;DHT22;54366;51.980;5.856;2022-07-23T09:20:44;24.40;50.70
67529;DHT22;54366;51.980;5.856;2022-07-23T09:23:11;24.50;49.90
67529;DHT22;54366;51.980;5.856;2022-07-23T09:25:37;24.60;48.30
67529;DHT22;54366;51.980;5.856;2022-07-23T09:28:03;24.50;48.60
67529;DHT22;54366;51.980;5.856;2022-07-23T09:30:31;24.50;48.50
67529;DHT22;54366;51.980;5.856;2022-07-23T09:35:55;24.60;48.50
67529;DHT22;54366;51.980;5.856;2022-07-23T09:38:23;24.70;48.20
67529;DHT22;54366;51.980;5.856;2022-07-23T09:41:25;24.80;48.40
67529;DHT22;54366;51.980;5.856;2022-07-23T09:44:09;24.90;47.80
67529;DHT22;54366;51.980;5.856;2022-07-23T09:46:36;25.10;49.00
67529;DHT22;54366;51.980;5.856;2022-07-23T09:49:16;25.20;47.80
67529;DHT22;54366;51.980;5.856;2022-07-23T09:51:48;25.40;48.10
67529;DHT22;54366;51.980;5.856;2022-07-23T09:54:36;25.60;47.80
67529;DHT22;54366;51.980;5.856;2022-07-23T09:57:08;25.70;46.10
67529;DHT22;54366;51.980;5.856;2022-07-23T09:59:38;25.80;45.80
67529;DHT22;54366;51.980;5.856;2022-07-23T10:02:06;25.80;44.90
67529;DHT22;54366;51.980;5.856;2022-07-23T10:04:43;25.90;44.80
67529;DHT22;54366;51.980;5.856;2022-07-23T10:07:39;26.00;44.50
67529;DHT22;54366;51.980;5.856;2022-07-23T10:10:26;26.20;43.70
67529;DHT22;54366;51.980;5.856;2022-07-23T10:13:22;26.30;44.20
67529;DHT22;54366;51.980;5.856;2022-07-23T10:16:10;26.30;43.60
67529;DHT22;54366;51.980;5.856;2022-07-23T10:18:36;26.40;43.40
67529;DHT22;54366;51.980;5.856;2022-07-23T10:21:05;26.50;43.90
67529;DHT22;54366;51.980;5.856;2022-07-23T10:23:42;26.60;43.50
67529;DHT22;54366;51.980;5.856;2022-07-23T10:29:12;27.00;42.60
67529;DHT22;54366;51.980;5.856;2022-07-23T10:34:21;27.10;41.50
67529;DHT22;54366;51.980;5.856;2022-07-23T10:36:53;26.90;42.50
67529;DHT22;54366;51.980;5.856;2022-07-23T10:39:22;26.90;42.20
67529;DHT22;54366;51.980;5.856;2022-07-23T10:41:51;27.00;41.50
67529;DHT22;54366;51.980;5.856;2022-07-23T10:44:21;27.00;40.60
67529;DHT22;54366;51.980;5.856;2022-07-23T10:47:02;27.00;41.50
67529;DHT22;54366;51.980;5.856;2022-07-23T10:49:33;27.00;40.50
67529;DHT22;54366;51.980;5.856;2022-07-23T10:52:22;27.00;41.40
67529;DHT22;54366;51.980;5.856;2022-07-23T10:57:50;27.10;41.20
67529;DHT22;54366;51.980;5.856;2022-07-23T11:00:23;27.30;41.50
67529;DHT22;54366;51.980;5.856;2022-07-23T11:02:52;27.50;41.90
67529;DHT22;54366;51.980;5.856;2022-07-23T11:05:23;27.70;41.70
67529;DHT22;54366;51.980;5.856;2022-07-23T11:10:49;28.20;40.30
67529;DHT22;54366;51.980;5.856;2022-07-23T11:13:40;28.20;39.90
67529;DHT22;54366;51.980;5.856;2022-07-23T11:16:11;28.10;40.00
67529;DHT22;54366;51.980;5.856;2022-07-23T11:24:00;28.60;39.40
67529;DHT22;54366;51.980;5.856;2022-07-23T11:34:45;29.00;38.40
67529;DHT22;54366;51.980;5.856;2022-07-23T11:37:28;29.20;38.30
67529;DHT22;54366;51.980;5.856;2022-07-23T11:39:55;29.20;38.00
67529;DHT22;54366;51.980;5.856;2022-07-23T11:42:22;29.20;38.30
67529;DHT22;54366;51.980;5.856;2022-07-23T11:44:50;29.30;38.20
67529;DHT22;54366;51.980;5.856;2022-07-23T11:47:22;29.50;37.90
67529;DHT22;54366;51.980;5.856;2022-07-23T11:50:00;29.50;37.90
67529;DHT22;54366;51.980;5.856;2022-07-23T11:52:27;29.60;38.00
67529;DHT22;54366;51.980;5.856;2022-07-23T11:55:05;29.60;37.90
67529;DHT22;54366;51.980;5.856;2022-07-23T11:57:35;29.60;37.20
67529;DHT22;54366;51.980;5.856;2022-07-23T12:00:06;29.60;36.60
67529;DHT22;54366;51.980;5.856;2022-07-23T12:02:40;29.50;36.90
67529;DHT22;54366;51.980;5.856;2022-07-23T12:05:10;29.60;37.70
67529;DHT22;54366;51.980;5.856;2022-07-23T12:07:39;29.80;38.30
67529;DHT22;54366;51.980;5.856;2022-07-23T12:12:44;30.00;36.40
67529;DHT22;54366;51.980;5.856;2022-07-23T12:15:15;30.20;37.20
67529;DHT22;54366;51.980;5.856;2022-07-23T12:17:44;30.40;36.60
67529;DHT22;54366;51.980;5.856;2022-07-23T12:20:15;30.10;35.60
67529;DHT22;54366;51.980;5.856;2022-07-23T12:22:47;29.80;36.00
67529;DHT22;54366;51.980;5.856;2022-07-23T12:25:16;29.40;35.90
67529;DHT22;54366;51.980;5.856;2022-07-23T12:27:43;29.00;37.10
67529;DHT22;54366;51.980;5.856;2022-07-23T12:32:48;28.90;37.40
67529;DHT22;54366;51.980;5.856;2022-07-23T12:35:15;28.90;37.60
67529;DHT22;54366;51.980;5.856;2022-07-23T12:37:43;29.10;37.20
67529;DHT22;54366;51.980;5.856;2022-07-23T12:42:51;29.30;36.20
67529;DHT22;54366;51.980;5.856;2022-07-23T12:45:18;29.50;36.80
67529;DHT22;54366;51.980;5.856;2022-07-23T12:47:52;29.60;36.10
67529;DHT22;54366;51.980;5.856;2022-07-23T12:55:38;30.00;36.80
67529;DHT22;54366;51.980;5.856;2022-07-23T12:58:17;30.20;36.10
67529;DHT22;54366;51.980;5.856;2022-07-23T13:03:29;30.50;35.60
67529;DHT22;54366;51.980;5.856;2022-07-23T13:05:57;30.60;35.80
67529;DHT22;54366;51.980;5.856;2022-07-23T13:08:25;30.70;36.10
67529;DHT22;54366;51.980;5.856;2022-07-23T13:10:51;30.80;35.30
67529;DHT22;54366;51.980;5.856;2022-07-23T13:13:23;30.90;35.60
67529;DHT22;54366;51.980;5.856;2022-07-23T13:15:51;31.00;34.80
67529;DHT22;54366;51.980;5.856;2022-07-23T13:18:18;31.00;35.10
67529;DHT22;54366;51.980;5.856;2022-07-23T13:20:46;31.10;33.60
67529;DHT22;54366;51.980;5.856;2022-07-23T13:23:13;30.90;34.00
67529;DHT22;54366;51.980;5.856;2022-07-23T13:25:39;30.90;35.20
67529;DHT22;54366;51.980;5.856;2022-07-23T13:28:06;30.80;33.50
67529;DHT22;54366;51.980;5.856;2022-07-23T13:30:33;30.40;33.50
67529;DHT22;54366;51.980;5.856;2022-07-23T13:33:00;30.20;33.80
67529;DHT22;54366;51.980;5.856;2022-07-23T13:35:27;30.10;33.90
67529;DHT22;54366;51.980;5.856;2022-07-23T13:37:53;30.10;33.90
67529;DHT22;54366;51.980;5.856;2022-07-23T13:40:19;30.00;33.90
67529;DHT22;54366;51.980;5.856;2022-07-23T13:42:46;30.00;35.10
67529;DHT22;54366;51.980;5.856;2022-07-23T13:45:12;30.10;34.70
67529;DHT22;54366;51.980;5.856;2022-07-23T13:47:39;30.10;35.50
67529;DHT22;54366;51.980;5.856;2022-07-23T13:50:05;30.10;35.10
67529;DHT22;54366;51.980;5.856;2022-07-23T13:52:32;30.10;34.90
67529;DHT22;54366;51.980;5.856;2022-07-23T13:55:05;30.00;35.40
67529;DHT22;54366;51.980;5.856;2022-07-23T13:57:32;29.90;35.70
67529;DHT22;54366;51.980;5.856;2022-07-23T13:59:58;29.80;35.50
67529;DHT22;54366;51.980;5.856;2022-07-23T14:02:25;29.60;34.60
67529;DHT22;54366;51.980;5.856;2022-07-23T14:04:52;29.40;35.30
67529;DHT22;54366;51.980;5.856;2022-07-23T14:07:19;29.20;35.00
67529;DHT22;54366;51.980;5.856;2022-07-23T14:09:45;29.10;35.40
67529;DHT22;54366;51.980;5.856;2022-07-23T14:12:11;29.10;36.20
67529;DHT22;54366;51.980;5.856;2022-07-23T14:14:38;29.20;36.60
67529;DHT22;54366;51.980;5.856;2022-07-23T14:17:04;29.20;36.00
67529;DHT22;54366;51.980;5.856;2022-07-23T14:19:30;29.10;37.40
67529;DHT22;54366;51.980;5.856;2022-07-23T14:21:57;29.00;36.30
67529;DHT22;54366;51.980;5.856;2022-07-23T14:24:23;29.00;37.00
67529;DHT22;54366;51.980;5.856;2022-07-23T14:26:49;28.90;37.00
67529;DHT22;54366;51.980;5.856;2022-07-23T14:29:15;28.80;36.90
67529;DHT22;54366;51.980;5.856;2022-07-23T14:31:41;28.80;37.20
67529;DHT22;54366;51.980;5.856;2022-07-23T14:34:08;28.80;37.30
67529;DHT22;54366;51.980;5.856;2022-07-23T14:36:34;28.90;37.80
67529;DHT22;54366;51.980;5.856;2022-07-23T14:39:00;28.90;37.50
67529;DHT22;54366;51.980;5.856;2022-07-23T14:41:27;28.80;37.20
67529;DHT22;54366;51.980;5.856;2022-07-23T14:43:53;28.80;38.00
67529;DHT22;54366;51.980;5.856;2022-07-23T14:46:19;28.80;38.60
67529;DHT22;54366;51.980;5.856;2022-07-23T14:48:46;28.80;38.50
67529;DHT22;54366;51.980;5.856;2022-07-23T14:51:12;28.90;38.90
67529;DHT22;54366;51.980;5.856;2022-07-23T14:53:38;28.90;38.80
67529;DHT22;54366;51.980;5.856;2022-07-23T14:56:04;29.00;38.50
67529;DHT22;54366;51.980;5.856;2022-07-23T14:58:31;28.90;37.80
67529;DHT22;54366;51.980;5.856;2022-07-23T15:00:57;28.90;37.80
67529;DHT22;54366;51.980;5.856;2022-07-23T15:03:23;28.90;37.50
67529;DHT22;54366;51.980;5.856;2022-07-23T15:05:50;28.80;37.70
67529;DHT22;54366;51.980;5.856;2022-07-23T15:08:17;28.90;38.00
67529;DHT22;54366;51.980;5.856;2022-07-23T15:10:43;28.80;37.70
67529;DHT22;54366;51.980;5.856;2022-07-23T15:13:10;28.70;37.60
67529;DHT22;54366;51.980;5.856;2022-07-23T15:15:36;28.80;38.40
67529;DHT22;54366;51.980;5.856;2022-07-23T15:18:02;28.80;38.20
67529;DHT22;54366;51.980;5.856;2022-07-23T15:20:28;28.80;38.50
67529;DHT22;54366;51.980;5.856;2022-07-23T15:22:54;28.70;38.50
67529;DHT22;54366;51.980;5.856;2022-07-23T15:25:21;28.70;38.40
67529;DHT22;54366;51.980;5.856;2022-07-23T15:27:47;28.60;38.40
67529;DHT22;54366;51.980;5.856;2022-07-23T15:30:13;28.70;38.90
67529;DHT22;54366;51.980;5.856;2022-07-23T15:32:39;28.60;38.50
67529;DHT22;54366;51.980;5.856;2022-07-23T15:35:06;28.60;39.00
67529;DHT22;54366;51.980;5.856;2022-07-23T15:37:34;28.70;38.60
67529;DHT22;54366;51.980;5.856;2022-07-23T15:40:01;28.60;38.90
67529;DHT22;54366;51.980;5.856;2022-07-23T15:42:31;28.60;38.60
67529;DHT22;54366;51.980;5.856;2022-07-23T15:44:57;28.60;38.90
67529;DHT22;54366;51.980;5.856;2022-07-23T15:47:24;28.60;39.40
67529;DHT22;54366;51.980;5.856;2022-07-23T15:49:50;28.60;38.80
67529;DHT22;54366;51.980;5.856;2022-07-23T15:52:16;28.60;38.70
67529;DHT22;54366;51.980;5.856;2022-07-23T15:54:42;28.60;38.00
67529;DHT22;54366;51.980;5.856;2022-07-23T15:57:09;28.60;39.20
67529;DHT22;54366;51.980;5.856;2022-07-23T15:59:35;28.60;39.40
67529;DHT22;54366;51.980;5.856;2022-07-23T16:02:02;28.60;38.30
67529;DHT22;54366;51.980;5.856;2022-07-23T16:04:29;28.50;38.50
67529;DHT22;54366;51.980;5.856;2022-07-23T16:06:56;28.50;38.60
67529;DHT22;54366;51.980;5.856;2022-07-23T16:09:22;28.50;38.10
67529;DHT22;54366;51.980;5.856;2022-07-23T16:11:49;28.50;38.20
67529;DHT22;54366;51.980;5.856;2022-07-23T16:14:15;28.40;38.40
67529;DHT22;54366;51.980;5.856;2022-07-23T16:16:42;28.40;38.30
67529;DHT22;54366;51.980;5.856;2022-07-23T16:19:09;28.30;38.50
67529;DHT22;54366;51.980;5.856;2022-07-23T16:21:35;28.30;37.80
67529;DHT22;54366;51.980;5.856;2022-07-23T16:24:01;28.20;38.10
67529;DHT22;54366;51.980;5.856;2022-07-23T16:26:28;28.20;39.20
67529;DHT22;54366;51.980;5.856;2022-07-23T16:28:54;28.20;38.90
67529;DHT22;54366;51.980;5.856;2022-07-23T16:31:20;28.10;38.90